createdAt,value
2018-10-19T00:21:09.292Z,7.6
2018-10-19T00:33:48.018Z,7.3
2018-10-19T00:45:28.887Z,7.1
2018-10-19T00:57:11.351Z,7.0
2018-10-19T01:08:38.101Z,6.9
2018-10-19T01:20:52.839Z,6.8
2018-10-19T01:33:23.626Z,6.7
2018-10-19T01:45:05.586Z,6.6
2018-10-19T01:57:19.462Z,6.4
2018-10-19T02:08:49.164Z,6.4
2018-10-19T02:19:03.311Z,6.4
2018-10-19T02:29:18.092Z,6.3
2018-10-19T02:39:31.861Z,6.3
2018-10-19T02:51:15.678Z,6.4
2018-10-19T03:03:26.447Z,6.6
2018-10-19T03:14:51.620Z,6.6
2018-10-19T03:26:39.537Z,7.0
2018-10-19T03:50:08.820Z,7.2
2018-10-19T04:02:11.468Z,7.2
2018-10-19T04:14:20.750Z,7.2
2018-10-19T04:26:03.719Z,7.2
2018-10-19T04:39:51.650Z,7.1
2018-10-19T04:50:03.468Z,7.2
2018-10-19T05:00:17.831Z,7.2
2018-10-19T05:11:03.238Z,7.2
2018-10-19T05:33:11.609Z,7.2
2018-10-19T05:44:47.264Z,7.1
2018-10-19T05:56:08.296Z,7.0
2018-10-19T06:18:33.268Z,7.0
2018-10-19T06:30:37.203Z,6.8
2018-10-19T06:41:17.471Z,6.8
2018-10-19T06:52:35.740Z,6.8
2018-10-19T07:03:05.462Z,6.9
2018-10-19T07:14:08.298Z,7.1
2018-10-19T07:25:20.271Z,7.4
2018-10-19T07:36:08.019Z,7.4
2018-10-19T07:46:39.386Z,7.9
2018-10-19T07:56:53.814Z,9.1
2018-10-19T08:07:07.934Z,10.8
2018-10-19T08:17:23.476Z,12.9
2018-10-19T08:27:37.116Z,14.8
2018-10-19T08:50:19.173Z,19.6
2018-10-19T09:01:50.536Z,20.0
2018-10-19T09:13:39.502Z,19.4
2018-10-19T09:25:50.038Z,18.7
2018-10-19T09:38:01.651Z,18.4
2018-10-19T10:00:25.988Z,19.9
2018-10-19T10:12:36.265Z,21.1
2018-10-19T10:25:14.763Z,22.4
2018-10-19T10:36:45.802Z,22.8
2018-10-19T10:47:20.079Z,22.9
2018-10-19T10:58:41.465Z,22.8
2018-10-19T11:08:55.480Z,23.1
2018-10-19T11:20:54.841Z,25.2
2018-10-19T11:43:25.159Z,26.3
2018-10-19T11:55:14.209Z,26.9
2018-10-19T12:24:06.921Z,26.9
2018-10-19T12:35:12.412Z,26.9
2018-10-19T12:46:55.372Z,26.9
2018-10-19T12:58:54.105Z,26.8
2018-10-19T13:10:27.102Z,26.6
2018-10-19T13:21:41.712Z,26.0
2018-10-19T13:33:04.196Z,25.5
2018-10-19T13:45:12.196Z,25.4
2018-10-19T13:56:58.804Z,24.8
2018-10-19T14:08:37.450Z,24.9
2018-10-19T14:20:43.146Z,25.3
2018-10-19T14:31:55.421Z,25.3
2018-10-19T14:44:52.153Z,25.5
2018-10-19T14:55:37.807Z,24.9
2018-10-19T15:06:03.708Z,24.9
2018-10-19T15:16:53.311Z,23.1
2018-10-19T15:27:08.097Z,23.0
2018-10-19T15:47:56.167Z,21.3
2018-10-19T15:58:11.504Z,20.4
2018-10-19T16:19:25.333Z,18.8
2018-10-19T16:30:22.763Z,17.3
2018-10-19T16:40:40.101Z,17.3
2018-10-19T17:04:20.868Z,15.4
2018-10-19T17:15:08.915Z,14.8
2018-10-19T17:25:55.175Z,14.2
2018-10-19T17:36:15.821Z,14.2
2018-10-19T17:46:35.474Z,13.7
2018-10-19T17:56:49.797Z,13.2
2018-10-19T18:07:40.460Z,12.4
2018-10-19T18:18:31.498Z,12.0
2018-10-19T18:57:48.537Z,10.9
2018-10-19T19:08:39.134Z,10.6
2018-10-19T19:19:30.691Z,10.3
2018-10-19T19:45:08.202Z,9.6
2018-10-19T19:55:24.129Z,9.6
2018-10-19T20:06:13.682Z,9.1
2018-10-19T20:16:28.749Z,9.1
2018-10-19T20:26:43.933Z,8.9
2018-10-19T20:37:37.442Z,8.5
2018-10-19T20:48:33.630Z,8.3
2018-10-19T20:59:20.462Z,8.1
2018-10-19T21:09:36.644Z,8.1
2018-10-19T21:19:53.001Z,8.0
2018-10-19T21:31:12.873Z,7.8
2018-10-19T21:42:33.739Z,7.4
2018-10-19T21:53:21.957Z,7.3
2018-10-19T22:04:09.494Z,7.2
2018-10-19T22:14:25.685Z,7.2
2018-10-19T22:24:41.561Z,7.0
2018-10-19T22:45:52.033Z,6.8
2018-10-19T22:56:53.578Z,6.6
2018-10-19T23:07:10.820Z,6.6
2018-10-19T23:17:26.726Z,6.4
2018-10-19T23:27:44.253Z,6.3
2018-10-19T23:38:49.434Z,6.1
2018-10-19T23:49:05.871Z,6.0
2018-10-19T23:59:22.440Z,5.9
